Norwegian Star — C6FR3 — position and weather

sailwx.info

Track history (hours):
 
Tides and Currents Weather Stations Pressure Air Temp Water Temp Dewpoint Dewpoint Depression Visibility Wind Speed Wind Dir Waves Ship Positions

Norwegian Star

Operator: Norwegian Cruise Line

Last reported at 2017-Jul-22 16:31 UTC. Time now 2017-Jul-22 16:56 UTC.
Position N 44°29' E 012°27'.

Type: Passenger vessel. MMSI: 311082000.

Date/timePositionNaut miles runAvg speedWind from/ knotsBaromVisibWave heightAir tempDewpointWater temp
2017-Jul-22 16:31N 44°29' E 012°27'3 6.8
2017-Jul-22 16:00N 44°30' E 012°23'3 6.4
2017-Jul-22 15:30N 44°30' E 012°18'1 1.5
2017-Jul-22 15:01N 44°30' E 012°17'0 0.0
2017-Jul-22 14:01N 44°30' E 012°17'0 0.0
2017-Jul-22 12:34N 44°30' E 012°17'0 0.0
2017-Jul-22 12:28N 44°30' E 012°17'0 0.0
2017-Jul-22 11:58N 44°30' E 012°17'0 0.0
2017-Jul-22 11:28N 44°30' E 012°17'0 0.0
2017-Jul-22 11:01N 44°30' E 012°17'0 0.0
2017-Jul-22 10:01N 44°30' E 012°17'0 0.0
2017-Jul-22 09:31N 44°30' E 012°17'0 0.0
2017-Jul-22 08:58N 44°30' E 012°17'0 0.0
2017-Jul-22 08:28N 44°30' E 012°17'0 0.0
2017-Jul-22 07:52N 44°30' E 012°17'0 0.0
2017-Jul-22 07:31N 44°30' E 012°17'0 0.0
2017-Jul-22 07:01N 44°30' E 012°17'0 0.0
2017-Jul-22 06:28N 44°30' E 012°17'0 0.0
2017-Jul-22 05:58N 44°30' E 012°17'0 0.3
2017-Jul-22 05:30N 44°30' E 012°17'3 5.6
2017-Jul-22 05:00N 44°30' E 012°21'611.3
2017-Jul-22 04:30N 44°29' E 012°29'611.7
2017-Jul-22 04:00N 44°27' E 012°37'1311.8
2017-Jul-22 02:53N 44°22' E 012°54'511.9
2017-Jul-22 02:30N 44°20' E 012°60'611.9
2017-Jul-22 02:00N 44°18' E 013°07'611.7
2017-Jul-22 01:30N 44°17' E 013°15'612.0
2017-Jul-22 01:00N 44°13' E 013°22'612.1
2017-Jul-22 00:30N 44°09' E 013°29'612.1
2017-Jul-21 23:59N 44°06' E 013°35'612.0
2017-Jul-21 23:30N 44°02' E 013°42'612.1
2017-Jul-21 23:00N 43°59' E 013°49'612.1
2017-Jul-21 22:30N 43°56' E 013°56'612.1
2017-Jul-21 22:00N 43°52' E 014°03'612.1
2017-Jul-21 21:30N 43°49' E 014°10'612.0
2017-Jul-21 21:00N 43°45' E 014°17'612.1
2017-Jul-21 20:30N 43°41' E 014°22'612.1
2017-Jul-21 20:00N 43°36' E 014°28'612.1
2017-Jul-21 19:30N 43°32' E 014°33'9312.0
2017-Jul-21 11:45N 42°25' E 016°03'312.1
2017-Jul-21 11:30N 42°23' E 016°05'612.1
2017-Jul-21 11:00N 42°19' E 016°11'9812.3
2017-Jul-21 03:00N 41°12' E 017°48'4111.5 050 / 121012.010.8 25.0
2017-Jul-20 23:25N 40°45' E 018°29'512.0
2017-Jul-20 23:00N 40°42' E 018°34'712.0
2017-Jul-20 22:24N 40°37' E 018°41'612.0
2017-Jul-20 21:54N 40°33' E 018°47'512.0
2017-Jul-20 21:28N 40°29' E 018°52'612.1
2017-Jul-20 20:57N 40°25' E 018°58'711.9
2017-Jul-20 20:23N 40°21' E 019°04'512.0
2017-Jul-20 19:58N 40°18' E 019°10'50 2.3
2017-Jul-19 21:43N 41°07' E 018°57'516.9
2017-Jul-19 21:27N 41°11' E 018°56'263 5.6
2017-Jul-17 22:31N 43°55' E 014°17'118.9
2017-Jul-17 22:29N 43°55' E 014°17'1020.1
2017-Jul-17 22:00N 44°03' E 014°07'1020.5
2017-Jul-17 21:31N 44°10' E 013°58'1020.6
2017-Jul-17 21:00N 44°19' E 013°50'1020.8
2017-Jul-17 20:31N 44°27' E 013°42'1020.7
2017-Jul-17 20:01N 44°36' E 013°33'2109.7
2017-Jul-17 20:00N 44°36' E 013°36'1122.8 300 / 61019.0 25.0
2017-Jul-17 19:30N 44°44' E 013°26'1020.5
2017-Jul-17 19:00N 44°53' E 013°18'1020.1
2017-Jul-17 18:30N 45°00' E 013°08'1019.7
2017-Jul-17 18:01N 45°07' E 012°58'1019.7
2017-Jul-17 17:31N 45°14' E 012°49'1019.3
2017-Jul-17 17:00N 45°20' E 012°38'815.6
2017-Jul-17 16:31N 45°24' E 012°28'4 8.5
2017-Jul-17 16:00N 45°26' E 012°23'3 5.1
2017-Jul-17 15:31N 45°26' E 012°19'1 1.2
2017-Jul-17 15:00N 45°26' E 012°19'0 0.0
2017-Jul-17 14:30N 45°26' E 012°19'0 0.0
2017-Jul-17 14:00N 45°26' E 012°19'0 0.0
2017-Jul-17 13:24N 45°26' E 012°19'0 0.0
2017-Jul-17 13:00N 45°26' E 012°19'0 0.0
2017-Jul-17 12:30N 45°26' E 012°19'0 0.0
2017-Jul-17 12:00N 45°26' E 012°19'0 0.0
2017-Jul-17 11:30N 45°26' E 012°19'0 0.0
2017-Jul-17 11:00N 45°26' E 012°19'0 0.0
2017-Jul-17 10:30N 45°26' E 012°19'0 0.0
2017-Jul-17 10:00N 45°26' E 012°19'0 0.0
2017-Jul-17 09:30N 45°26' E 012°19'0 0.0
2017-Jul-17 09:00N 45°26' E 012°19'0 0.0
2017-Jul-17 08:30N 45°26' E 012°19'0 0.0
2017-Jul-17 08:00N 45°26' E 012°19'0 0.0
2017-Jul-17 07:30N 45°26' E 012°19'0 0.0
2017-Jul-17 07:00N 45°26' E 012°19'0 0.0
2017-Jul-17 06:30N 45°26' E 012°19'0 0.0
2017-Jul-17 06:00N 45°26' E 012°19'0 0.0
2017-Jul-17 05:28N 45°26' E 012°19'0 0.8
2017-Jul-17 05:00N 45°26' E 012°19'2 4.9
2017-Jul-17 04:31N 45°25' E 012°22'3 6.5
2017-Jul-17 04:01N 45°25' E 012°27'611.3
2017-Jul-17 03:31N 45°22' E 012°33'815.4
2017-Jul-17 03:00N 45°18' E 012°43'816.1
2017-Jul-17 02:30N 45°14' E 012°53'815.7
2017-Jul-17 02:00N 45°09' E 013°01'815.7
2017-Jul-17 01:30N 45°04' E 013°10'815.9
2017-Jul-17 01:00N 44°58' E 013°17'815.6
2017-Jul-17 00:30N 44°52' E 013°25'815.6
2017-Jul-17 00:00N 44°45' E 013°31'815.6
2017-Jul-16 23:30N 44°39' E 013°37'816.0
2017-Jul-16 23:00N 44°33' E 013°44'815.5
2017-Jul-16 22:30N 44°26' E 013°49'815.6
2017-Jul-16 22:00N 44°19' E 013°55'815.4
2017-Jul-16 21:30N 44°13' E 014°01'1427.3
2017-Jul-16 21:00N 44°06' E 014°18'195 7.8 050 / 351017.5 24.0
2017-Jul-15 20:00N 42°24' E 018°06'102 4.5 020 / 301010.0 27.0
2017-Jul-14 21:00N 40°48' E 018°54'22714.8 320 / 201008.5 27.0
2017-Jul-14 05:40N 37°23' E 021°02'415.1
2017-Jul-14 05:26N 37°21' E 021°04'11912.5
2017-Jul-13 19:54N 36°39' E 023°23'1111.8
2017-Jul-13 19:00N 36°48' E 023°30'1222.2 090 / 51017.0 27.0
2017-Jul-13 18:28N 36°59' E 023°36'715.8
2017-Jul-13 18:00N 37°06' E 023°37'815.8
2017-Jul-13 17:31N 37°14' E 023°40'815.3
2017-Jul-13 17:01N 37°21' E 023°42'815.4
2017-Jul-13 16:31N 37°28' E 023°45'815.2
2017-Jul-13 16:01N 37°36' E 023°45'815.6
2017-Jul-13 15:31N 37°43' E 023°41'815.5
2017-Jul-13 15:01N 37°50' E 023°35'713.3
2017-Jul-13 14:30N 37°56' E 023°37'1 1.7
2017-Jul-13 13:58N 37°56' E 023°38'0 0.0
2017-Jul-13 13:25N 37°56' E 023°38'0 0.0
2017-Jul-13 12:58N 37°56' E 023°38'0 0.0
2017-Jul-13 12:29N 37°56' E 023°38'0 0.0
2017-Jul-13 11:56N 37°56' E 023°38'0 0.0
2017-Jul-13 11:29N 37°56' E 023°38'0 0.0
2017-Jul-13 10:59N 37°56' E 023°38'0 0.0
2017-Jul-13 10:29N 37°56' E 023°38'0 0.0
2017-Jul-13 09:59N 37°56' E 023°38'0 0.0
2017-Jul-13 09:29N 37°56' E 023°38'0 0.0
2017-Jul-13 08:59N 37°56' E 023°38'0 0.0
2017-Jul-13 08:29N 37°56' E 023°38'0 0.0
2017-Jul-13 07:59N 37°56' E 023°38'0 0.0
2017-Jul-13 07:29N 37°56' E 023°38'0 0.0
2017-Jul-13 06:59N 37°56' E 023°38'0 0.0
2017-Jul-13 06:29N 37°56' E 023°38'0 0.0
2017-Jul-13 05:59N 37°56' E 023°38'0 0.1
2017-Jul-13 05:31N 37°56' E 023°38'2 4.1
2017-Jul-13 05:00N 37°55' E 023°37'713.7
2017-Jul-13 04:30N 37°48' E 023°41'816.1
2017-Jul-13 04:00N 37°41' E 023°45'816.0
2017-Jul-13 03:30N 37°33' E 023°46'816.1
2017-Jul-13 03:00N 37°25' E 023°44'816.3
2017-Jul-13 02:30N 37°17' E 023°41'816.3
2017-Jul-13 02:00N 37°09' E 023°39'816.3
2017-Jul-13 01:30N 37°01' E 023°36'816.1
2017-Jul-13 01:00N 36°54' E 023°33'816.3
2017-Jul-13 00:30N 36°46' E 023°30'816.2
2017-Jul-13 00:00N 36°39' E 023°25'815.9
2017-Jul-12 23:30N 36°32' E 023°20'815.5
2017-Jul-12 23:00N 36°25' E 023°15'  
Track history (hours):
 
Tides and Currents Weather Stations Pressure Air Temp Water Temp Dewpoint Dewpoint Depression Visibility Wind Speed Wind Dir Waves Ship Positions

Norwegian Star

Operator: Norwegian Cruise Line

Last reported at 2017-Jul-22 16:31 UTC. Time now 2017-Jul-22 16:56 UTC.
Position N 44°29' E 012°27'.

Type: Passenger vessel. MMSI: 311082000.

Date/timePositionNaut miles runAvg speedWind from/ knotsBaromVisibWave heightAir tempDewpointWater temp
2017-Jul-22 16:31N 44°29' E 012°27'3 6.8
2017-Jul-22 16:00N 44°30' E 012°23'3 6.4
2017-Jul-22 15:30N 44°30' E 012°18'1 1.5
2017-Jul-22 15:01N 44°30' E 012°17'0 0.0
2017-Jul-22 14:01N 44°30' E 012°17'0 0.0
2017-Jul-22 12:34N 44°30' E 012°17'0 0.0
2017-Jul-22 12:28N 44°30' E 012°17'0 0.0
2017-Jul-22 11:58N 44°30' E 012°17'0 0.0
2017-Jul-22 11:28N 44°30' E 012°17'0 0.0
2017-Jul-22 11:01N 44°30' E 012°17'0 0.0
2017-Jul-22 10:01N 44°30' E 012°17'0 0.0
2017-Jul-22 09:31N 44°30' E 012°17'0 0.0
2017-Jul-22 08:58N 44°30' E 012°17'0 0.0
2017-Jul-22 08:28N 44°30' E 012°17'0 0.0
2017-Jul-22 07:52N 44°30' E 012°17'0 0.0
2017-Jul-22 07:31N 44°30' E 012°17'0 0.0
2017-Jul-22 07:01N 44°30' E 012°17'0 0.0
2017-Jul-22 06:28N 44°30' E 012°17'0 0.0
2017-Jul-22 05:58N 44°30' E 012°17'0 0.3
2017-Jul-22 05:30N 44°30' E 012°17'3 5.6
2017-Jul-22 05:00N 44°30' E 012°21'611.3
2017-Jul-22 04:30N 44°29' E 012°29'611.7
2017-Jul-22 04:00N 44°27' E 012°37'1311.8
2017-Jul-22 02:53N 44°22' E 012°54'511.9
2017-Jul-22 02:30N 44°20' E 012°60'611.9
2017-Jul-22 02:00N 44°18' E 013°07'611.7
2017-Jul-22 01:30N 44°17' E 013°15'612.0
2017-Jul-22 01:00N 44°13' E 013°22'612.1
2017-Jul-22 00:30N 44°09' E 013°29'612.1
2017-Jul-21 23:59N 44°06' E 013°35'612.0
2017-Jul-21 23:30N 44°02' E 013°42'612.1
2017-Jul-21 23:00N 43°59' E 013°49'612.1
2017-Jul-21 22:30N 43°56' E 013°56'612.1
2017-Jul-21 22:00N 43°52' E 014°03'612.1
2017-Jul-21 21:30N 43°49' E 014°10'612.0
2017-Jul-21 21:00N 43°45' E 014°17'612.1
2017-Jul-21 20:30N 43°41' E 014°22'612.1
2017-Jul-21 20:00N 43°36' E 014°28'612.1
2017-Jul-21 19:30N 43°32' E 014°33'9312.0
2017-Jul-21 11:45N 42°25' E 016°03'312.1
2017-Jul-21 11:30N 42°23' E 016°05'612.1
2017-Jul-21 11:00N 42°19' E 016°11'9812.3
2017-Jul-21 03:00N 41°12' E 017°48'4111.5 050 / 121012.010.8 25.0
2017-Jul-20 23:25N 40°45' E 018°29'512.0
2017-Jul-20 23:00N 40°42' E 018°34'712.0
2017-Jul-20 22:24N 40°37' E 018°41'612.0
2017-Jul-20 21:54N 40°33' E 018°47'512.0
2017-Jul-20 21:28N 40°29' E 018°52'612.1
2017-Jul-20 20:57N 40°25' E 018°58'711.9
2017-Jul-20 20:23N 40°21' E 019°04'512.0
2017-Jul-20 19:58N 40°18' E 019°10'50 2.3
2017-Jul-19 21:43N 41°07' E 018°57'516.9
2017-Jul-19 21:27N 41°11' E 018°56'263 5.6
2017-Jul-17 22:31N 43°55' E 014°17'118.9
2017-Jul-17 22:29N 43°55' E 014°17'1020.1
2017-Jul-17 22:00N 44°03' E 014°07'1020.5
2017-Jul-17 21:31N 44°10' E 013°58'1020.6
2017-Jul-17 21:00N 44°19' E 013°50'1020.8
2017-Jul-17 20:31N 44°27' E 013°42'1020.7
2017-Jul-17 20:01N 44°36' E 013°33'2109.7
2017-Jul-17 20:00N 44°36' E 013°36'1122.8 300 / 61019.0 25.0
2017-Jul-17 19:30N 44°44' E 013°26'1020.5
2017-Jul-17 19:00N 44°53' E 013°18'1020.1
2017-Jul-17 18:30N 45°00' E 013°08'1019.7
2017-Jul-17 18:01N 45°07' E 012°58'1019.7
2017-Jul-17 17:31N 45°14' E 012°49'1019.3
2017-Jul-17 17:00N 45°20' E 012°38'815.6
2017-Jul-17 16:31N 45°24' E 012°28'4 8.5
2017-Jul-17 16:00N 45°26' E 012°23'3 5.1
2017-Jul-17 15:31N 45°26' E 012°19'1 1.2
2017-Jul-17 15:00N 45°26' E 012°19'0 0.0
2017-Jul-17 14:30N 45°26' E 012°19'0 0.0
2017-Jul-17 14:00N 45°26' E 012°19'0 0.0
2017-Jul-17 13:24N 45°26' E 012°19'0 0.0
2017-Jul-17 13:00N 45°26' E 012°19'0 0.0
2017-Jul-17 12:30N 45°26' E 012°19'0 0.0
2017-Jul-17 12:00N 45°26' E 012°19'0 0.0
2017-Jul-17 11:30N 45°26' E 012°19'0 0.0
2017-Jul-17 11:00N 45°26' E 012°19'0 0.0
2017-Jul-17 10:30N 45°26' E 012°19'0 0.0
2017-Jul-17 10:00N 45°26' E 012°19'0 0.0
2017-Jul-17 09:30N 45°26' E 012°19'0 0.0
2017-Jul-17 09:00N 45°26' E 012°19'0 0.0
2017-Jul-17 08:30N 45°26' E 012°19'0 0.0
2017-Jul-17 08:00N 45°26' E 012°19'0 0.0
2017-Jul-17 07:30N 45°26' E 012°19'0 0.0
2017-Jul-17 07:00N 45°26' E 012°19'0 0.0
2017-Jul-17 06:30N 45°26' E 012°19'0 0.0
2017-Jul-17 06:00N 45°26' E 012°19'0 0.0
2017-Jul-17 05:28N 45°26' E 012°19'0 0.8
2017-Jul-17 05:00N 45°26' E 012°19'2 4.9
2017-Jul-17 04:31N 45°25' E 012°22'3 6.5
2017-Jul-17 04:01N 45°25' E 012°27'611.3
2017-Jul-17 03:31N 45°22' E 012°33'815.4
2017-Jul-17 03:00N 45°18' E 012°43'816.1
2017-Jul-17 02:30N 45°14' E 012°53'815.7
2017-Jul-17 02:00N 45°09' E 013°01'815.7
2017-Jul-17 01:30N 45°04' E 013°10'815.9
2017-Jul-17 01:00N 44°58' E 013°17'815.6
2017-Jul-17 00:30N 44°52' E 013°25'815.6
2017-Jul-17 00:00N 44°45' E 013°31'815.6
2017-Jul-16 23:30N 44°39' E 013°37'816.0
2017-Jul-16 23:00N 44°33' E 013°44'815.5
2017-Jul-16 22:30N 44°26' E 013°49'815.6
2017-Jul-16 22:00N 44°19' E 013°55'815.4
2017-Jul-16 21:30N 44°13' E 014°01'1427.3
2017-Jul-16 21:00N 44°06' E 014°18'195 7.8 050 / 351017.5 24.0
2017-Jul-15 20:00N 42°24' E 018°06'102 4.5 020 / 301010.0 27.0
2017-Jul-14 21:00N 40°48' E 018°54'22714.8 320 / 201008.5 27.0
2017-Jul-14 05:40N 37°23' E 021°02'415.1
2017-Jul-14 05:26N 37°21' E 021°04'11912.5
2017-Jul-13 19:54N 36°39' E 023°23'1111.8
2017-Jul-13 19:00N 36°48' E 023°30'1222.2 090 / 51017.0 27.0
2017-Jul-13 18:28N 36°59' E 023°36'715.8
2017-Jul-13 18:00N 37°06' E 023°37'815.8
2017-Jul-13 17:31N 37°14' E 023°40'815.3
2017-Jul-13 17:01N 37°21' E 023°42'815.4
2017-Jul-13 16:31N 37°28' E 023°45'815.2
2017-Jul-13 16:01N 37°36' E 023°45'815.6
2017-Jul-13 15:31N 37°43' E 023°41'815.5
2017-Jul-13 15:01N 37°50' E 023°35'713.3
2017-Jul-13 14:30N 37°56' E 023°37'1 1.7
2017-Jul-13 13:58N 37°56' E 023°38'0 0.0
2017-Jul-13 13:25N 37°56' E 023°38'0 0.0
2017-Jul-13 12:58N 37°56' E 023°38'0 0.0
2017-Jul-13 12:29N 37°56' E 023°38'0 0.0
2017-Jul-13 11:56N 37°56' E 023°38'0 0.0
2017-Jul-13 11:29N 37°56' E 023°38'0 0.0
2017-Jul-13 10:59N 37°56' E 023°38'0 0.0
2017-Jul-13 10:29N 37°56' E 023°38'0 0.0
2017-Jul-13 09:59N 37°56' E 023°38'0 0.0
2017-Jul-13 09:29N 37°56' E 023°38'0 0.0
2017-Jul-13 08:59N 37°56' E 023°38'0 0.0
2017-Jul-13 08:29N 37°56' E 023°38'0 0.0
2017-Jul-13 07:59N 37°56' E 023°38'0 0.0
2017-Jul-13 07:29N 37°56' E 023°38'0 0.0
2017-Jul-13 06:59N 37°56' E 023°38'0 0.0
2017-Jul-13 06:29N 37°56' E 023°38'0 0.0
2017-Jul-13 05:59N 37°56' E 023°38'0 0.1
2017-Jul-13 05:31N 37°56' E 023°38'2 4.1
2017-Jul-13 05:00N 37°55' E 023°37'713.7
2017-Jul-13 04:30N 37°48' E 023°41'816.1
2017-Jul-13 04:00N 37°41' E 023°45'816.0
2017-Jul-13 03:30N 37°33' E 023°46'816.1
2017-Jul-13 03:00N 37°25' E 023°44'816.3
2017-Jul-13 02:30N 37°17' E 023°41'816.3
2017-Jul-13 02:00N 37°09' E 023°39'816.3
2017-Jul-13 01:30N 37°01' E 023°36'816.1
2017-Jul-13 01:00N 36°54' E 023°33'816.3
2017-Jul-13 00:30N 36°46' E 023°30'816.2
2017-Jul-13 00:00N 36°39' E 023°25'815.9
2017-Jul-12 23:30N 36°32' E 023°20'815.5
2017-Jul-12 23:00N 36°25' E 023°15'  

Dump ship's entire track history